sensor_id;sensor_type;location;lat;lon;timestamp;P1;durP1;ratioP1;P2;durP2;ratioP2
22965;SDS011;11649;48.090;9.754;2024-03-23T00:54:35;7.75;;;4.47;;
22965;SDS011;11649;48.090;9.754;2024-03-23T00:57:07;6.57;;;4.10;;
22965;SDS011;11649;48.090;9.754;2024-03-23T00:59:36;6.15;;;4.38;;
22965;SDS011;11649;48.090;9.754;2024-03-23T01:02:05;7.63;;;4.10;;
22965;SDS011;11649;48.090;9.754;2024-03-23T01:04:52;8.00;;;4.03;;
22965;SDS011;11649;48.090;9.754;2024-03-23T01:07:20;6.03;;;4.13;;
22965;SDS011;11649;48.090;9.754;2024-03-23T01:09:59;6.50;;;4.20;;
22965;SDS011;11649;48.090;9.754;2024-03-23T01:12:35;4.55;;;3.58;;
22965;SDS011;11649;48.090;9.754;2024-03-23T01:15:20;5.50;;;3.90;;
22965;SDS011;11649;48.090;9.754;2024-03-23T01:17:46;6.45;;;3.95;;
22965;SDS011;11649;48.090;9.754;2024-03-23T01:20:20;6.82;;;4.10;;
22965;SDS011;11649;48.090;9.754;2024-03-23T01:22:46;5.85;;;4.18;;
22965;SDS011;11649;48.090;9.754;2024-03-23T01:25:12;5.97;;;3.80;;
22965;SDS011;11649;48.090;9.754;2024-03-23T01:27:38;5.15;;;3.85;;
22965;SDS011;11649;48.090;9.754;2024-03-23T01:30:04;6.90;;;4.10;;
22965;SDS011;11649;48.090;9.754;2024-03-23T01:32:30;5.88;;;3.97;;
22965;SDS011;11649;48.090;9.754;2024-03-23T01:34:56;5.45;;;3.83;;
22965;SDS011;11649;48.090;9.754;2024-03-23T01:37:22;5.95;;;3.67;;
22965;SDS011;11649;48.090;9.754;2024-03-23T01:39:48;5.03;;;3.70;;
22965;SDS011;11649;48.090;9.754;2024-03-23T01:42:14;5.22;;;3.75;;
22965;SDS011;11649;48.090;9.754;2024-03-23T01:44:41;5.07;;;3.53;;
22965;SDS011;11649;48.090;9.754;2024-03-23T01:47:12;5.78;;;3.50;;
22965;SDS011;11649;48.090;9.754;2024-03-23T01:49:41;6.22;;;3.67;;
22965;SDS011;11649;48.090;9.754;2024-03-23T01:52:08;5.25;;;3.38;;
22965;SDS011;11649;48.090;9.754;2024-03-23T01:54:34;4.45;;;3.30;;
22965;SDS011;11649;48.090;9.754;2024-03-23T01:57:00;5.68;;;3.63;;
22965;SDS011;11649;48.090;9.754;2024-03-23T01:59:26;4.82;;;3.50;;
22965;SDS011;11649;48.090;9.754;2024-03-23T02:01:52;5.22;;;3.53;;
22965;SDS011;11649;48.090;9.754;2024-03-23T02:04:19;8.05;;;4.00;;
22965;SDS011;11649;48.090;9.754;2024-03-23T02:06:45;5.57;;;3.40;;
22965;SDS011;11649;48.090;9.754;2024-03-23T02:09:11;5.18;;;3.28;;
22965;SDS011;11649;48.090;9.754;2024-03-23T02:11:37;8.70;;;3.60;;
22965;SDS011;11649;48.090;9.754;2024-03-23T02:14:04;4.50;;;3.70;;
22965;SDS011;11649;48.090;9.754;2024-03-23T02:16:30;4.93;;;3.47;;
22965;SDS011;11649;48.090;9.754;2024-03-23T02:18:59;4.85;;;3.42;;
22965;SDS011;11649;48.090;9.754;2024-03-23T02:21:33;4.60;;;3.55;;
22965;SDS011;11649;48.090;9.754;2024-03-23T02:24:03;5.03;;;3.75;;
22965;SDS011;11649;48.090;9.754;2024-03-23T02:26:47;5.68;;;3.38;;
22965;SDS011;11649;48.090;9.754;2024-03-23T02:29:18;5.75;;;3.97;;
22965;SDS011;11649;48.090;9.754;2024-03-23T02:31:59;5.20;;;3.50;;
22965;SDS011;11649;48.090;9.754;2024-03-23T02:34:34;5.35;;;3.65;;
22965;SDS011;11649;48.090;9.754;2024-03-23T02:37:20;5.60;;;3.55;;
22965;SDS011;11649;48.090;9.754;2024-03-23T02:39:54;4.70;;;3.30;;
22965;SDS011;11649;48.090;9.754;2024-03-23T02:42:26;6.30;;;3.78;;
22965;SDS011;11649;48.090;9.754;2024-03-23T02:44:59;5.65;;;3.47;;
22965;SDS011;11649;48.090;9.754;2024-03-23T02:48:16;5.90;;;3.42;;
22965;SDS011;11649;48.090;9.754;2024-03-23T02:50:42;4.65;;;3.42;;
22965;SDS011;11649;48.090;9.754;2024-03-23T02:53:20;6.60;;;4.00;;
22965;SDS011;11649;48.090;9.754;2024-03-23T02:55:45;5.38;;;3.78;;
22965;SDS011;11649;48.090;9.754;2024-03-23T02:58:24;7.45;;;4.15;;
22965;SDS011;11649;48.090;9.754;2024-03-23T03:00:53;5.55;;;3.70;;
22965;SDS011;11649;48.090;9.754;2024-03-23T03:03:21;6.05;;;4.05;;
22965;SDS011;11649;48.090;9.754;2024-03-23T03:05:48;5.55;;;3.40;;
22965;SDS011;11649;48.090;9.754;2024-03-23T03:08:25;6.47;;;3.20;;
22965;SDS011;11649;48.090;9.754;2024-03-23T03:11:20;5.25;;;3.50;;
22965;SDS011;11649;48.090;9.754;2024-03-23T03:14:01;6.88;;;3.55;;
22965;SDS011;11649;48.090;9.754;2024-03-23T03:16:29;4.75;;;3.60;;
22965;SDS011;11649;48.090;9.754;2024-03-23T03:18:55;4.95;;;3.40;;
22965;SDS011;11649;48.090;9.754;2024-03-23T03:21:21;5.72;;;3.38;;
22965;SDS011;11649;48.090;9.754;2024-03-23T03:23:47;5.93;;;3.35;;
22965;SDS011;11649;48.090;9.754;2024-03-23T03:26:18;7.60;;;3.70;;
22965;SDS011;11649;48.090;9.754;2024-03-23T03:28:44;5.13;;;3.40;;
22965;SDS011;11649;48.090;9.754;2024-03-23T03:31:17;6.65;;;3.53;;
22965;SDS011;11649;48.090;9.754;2024-03-23T03:33:44;3.92;;;3.20;;
22965;SDS011;11649;48.090;9.754;2024-03-23T03:36:11;5.30;;;3.28;;
22965;SDS011;11649;48.090;9.754;2024-03-23T03:38:38;5.05;;;3.15;;
22965;SDS011;11649;48.090;9.754;2024-03-23T03:41:05;4.53;;;3.25;;
22965;SDS011;11649;48.090;9.754;2024-03-23T03:43:32;5.20;;;3.63;;
22965;SDS011;11649;48.090;9.754;2024-03-23T03:46:02;5.25;;;3.55;;
22965;SDS011;11649;48.090;9.754;2024-03-23T03:48:28;5.30;;;3.42;;
22965;SDS011;11649;48.090;9.754;2024-03-23T03:50:54;6.05;;;3.65;;
22965;SDS011;11649;48.090;9.754;2024-03-23T03:53:20;5.15;;;3.40;;
22965;SDS011;11649;48.090;9.754;2024-03-23T03:55:48;5.70;;;3.28;;
22965;SDS011;11649;48.090;9.754;2024-03-23T03:58:14;4.30;;;2.85;;
22965;SDS011;11649;48.090;9.754;2024-03-23T04:00:40;6.88;;;3.78;;
22965;SDS011;11649;48.090;9.754;2024-03-23T04:03:06;4.88;;;3.40;;
22965;SDS011;11649;48.090;9.754;2024-03-23T04:05:40;4.63;;;3.28;;
22965;SDS011;11649;48.090;9.754;2024-03-23T04:08:06;5.20;;;3.25;;
22965;SDS011;11649;48.090;9.754;2024-03-23T04:10:37;5.93;;;3.30;;
22965;SDS011;11649;48.090;9.754;2024-03-23T04:13:03;3.97;;;3.28;;
22965;SDS011;11649;48.090;9.754;2024-03-23T04:15:32;4.50;;;3.20;;
22965;SDS011;11649;48.090;9.754;2024-03-23T04:17:58;5.95;;;3.42;;
22965;SDS011;11649;48.090;9.754;2024-03-23T04:20:25;7.55;;;3.20;;
22965;SDS011;11649;48.090;9.754;2024-03-23T04:22:52;4.57;;;3.15;;
22965;SDS011;11649;48.090;9.754;2024-03-23T04:25:20;7.20;;;3.58;;
22965;SDS011;11649;48.090;9.754;2024-03-23T04:27:46;5.13;;;3.47;;
22965;SDS011;11649;48.090;9.754;2024-03-23T04:30:12;5.45;;;3.78;;
22965;SDS011;11649;48.090;9.754;2024-03-23T04:32:38;5.28;;;3.58;;
22965;SDS011;11649;48.090;9.754;2024-03-23T04:35:04;4.53;;;3.22;;
22965;SDS011;11649;48.090;9.754;2024-03-23T04:37:35;7.95;;;3.47;;
22965;SDS011;11649;48.090;9.754;2024-03-23T04:40:02;4.15;;;3.25;;
22965;SDS011;11649;48.090;9.754;2024-03-23T04:42:29;4.75;;;3.10;;
22965;SDS011;11649;48.090;9.754;2024-03-23T04:44:55;4.38;;;2.90;;
22965;SDS011;11649;48.090;9.754;2024-03-23T04:47:23;5.43;;;3.20;;
22965;SDS011;11649;48.090;9.754;2024-03-23T04:49:48;5.10;;;3.20;;
22965;SDS011;11649;48.090;9.754;2024-03-23T04:52:21;3.80;;;3.10;;
22965;SDS011;11649;48.090;9.754;2024-03-23T04:54:47;4.53;;;3.20;;
22965;SDS011;11649;48.090;9.754;2024-03-23T04:57:16;6.38;;;3.05;;
22965;SDS011;11649;48.090;9.754;2024-03-23T04:59:42;4.85;;;3.00;;
22965;SDS011;11649;48.090;9.754;2024-03-23T05:02:08;4.28;;;3.03;;
22965;SDS011;11649;48.090;9.754;2024-03-23T05:04:39;5.40;;;3.42;;
22965;SDS011;11649;48.090;9.754;2024-03-23T05:07:09;7.13;;;3.17;;
22965;SDS011;11649;48.090;9.754;2024-03-23T05:09:46;5.10;;;2.85;;
22965;SDS011;11649;48.090;9.754;2024-03-23T05:12:14;4.80;;;3.20;;
22965;SDS011;11649;48.090;9.754;2024-03-23T05:14:40;4.75;;;3.10;;
22965;SDS011;11649;48.090;9.754;2024-03-23T05:17:06;5.90;;;2.97;;
22965;SDS011;11649;48.090;9.754;2024-03-23T05:19:34;6.32;;;3.28;;
22965;SDS011;11649;48.090;9.754;2024-03-23T05:21:59;4.32;;;3.30;;
22965;SDS011;11649;48.090;9.754;2024-03-23T05:24:25;5.38;;;3.10;;
22965;SDS011;11649;48.090;9.754;2024-03-23T05:26:51;3.97;;;2.55;;
22965;SDS011;11649;48.090;9.754;2024-03-23T05:29:18;7.20;;;3.38;;
22965;SDS011;11649;48.090;9.754;2024-03-23T05:31:49;4.45;;;2.75;;
22965;SDS011;11649;48.090;9.754;2024-03-23T05:34:18;4.13;;;3.15;;
22965;SDS011;11649;48.090;9.754;2024-03-23T05:36:44;6.13;;;3.30;;
22965;SDS011;11649;48.090;9.754;2024-03-23T05:39:11;7.25;;;3.42;;
22965;SDS011;11649;48.090;9.754;2024-03-23T05:41:45;7.85;;;3.40;;
22965;SDS011;11649;48.090;9.754;2024-03-23T05:44:11;7.40;;;3.67;;
22965;SDS011;11649;48.090;9.754;2024-03-23T05:46:37;7.40;;;3.42;;
22965;SDS011;11649;48.090;9.754;2024-03-23T05:49:04;6.57;;;3.13;;
22965;SDS011;11649;48.090;9.754;2024-03-23T05:51:30;4.38;;;3.03;;
22965;SDS011;11649;48.090;9.754;2024-03-23T05:53:57;6.82;;;4.13;;
22965;SDS011;11649;48.090;9.754;2024-03-23T05:56:22;7.95;;;3.15;;
22965;SDS011;11649;48.090;9.754;2024-03-23T05:58:48;9.52;;;5.85;;
22965;SDS011;11649;48.090;9.754;2024-03-23T06:01:14;14.07;;;8.20;;
22965;SDS011;11649;48.090;9.754;2024-03-23T06:03:42;6.05;;;3.88;;
22965;SDS011;11649;48.090;9.754;2024-03-23T06:06:09;4.88;;;3.25;;
22965;SDS011;11649;48.090;9.754;2024-03-23T06:08:37;7.65;;;4.30;;
22965;SDS011;11649;48.090;9.754;2024-03-23T06:11:04;6.13;;;3.75;;
22965;SDS011;11649;48.090;9.754;2024-03-23T06:13:35;5.15;;;3.45;;
22965;SDS011;11649;48.090;9.754;2024-03-23T06:16:01;6.15;;;3.90;;
22965;SDS011;11649;48.090;9.754;2024-03-23T06:18:27;7.57;;;4.15;;
22965;SDS011;11649;48.090;9.754;2024-03-23T06:20:54;7.45;;;3.97;;
22965;SDS011;11649;48.090;9.754;2024-03-23T06:23:20;5.63;;;3.85;;
22965;SDS011;11649;48.090;9.754;2024-03-23T06:25:46;5.18;;;3.67;;
22965;SDS011;11649;48.090;9.754;2024-03-23T06:28:12;6.05;;;3.80;;
22965;SDS011;11649;48.090;9.754;2024-03-23T06:30:39;4.65;;;3.65;;
22965;SDS011;11649;48.090;9.754;2024-03-23T06:33:04;5.53;;;3.75;;
22965;SDS011;11649;48.090;9.754;2024-03-23T06:35:36;7.38;;;4.30;;
22965;SDS011;11649;48.090;9.754;2024-03-23T06:38:02;6.43;;;4.22;;
22965;SDS011;11649;48.090;9.754;2024-03-23T06:40:30;5.78;;;4.10;;
22965;SDS011;11649;48.090;9.754;2024-03-23T06:42:55;8.38;;;4.57;;
22965;SDS011;11649;48.090;9.754;2024-03-23T06:45:21;7.57;;;4.53;;
22965;SDS011;11649;48.090;9.754;2024-03-23T06:47:49;8.18;;;5.80;;
22965;SDS011;11649;48.090;9.754;2024-03-23T06:50:15;7.13;;;5.22;;
22965;SDS011;11649;48.090;9.754;2024-03-23T06:52:41;8.50;;;5.18;;
22965;SDS011;11649;48.090;9.754;2024-03-23T06:55:07;11.73;;;5.18;;
22965;SDS011;11649;48.090;9.754;2024-03-23T06:57:33;13.00;;;5.40;;
22965;SDS011;11649;48.090;9.754;2024-03-23T06:59:59;8.48;;;5.07;;
22965;SDS011;11649;48.090;9.754;2024-03-23T07:02:25;7.22;;;5.47;;
22965;SDS011;11649;48.090;9.754;2024-03-23T07:04:51;8.25;;;5.07;;
22965;SDS011;11649;48.090;9.754;2024-03-23T07:07:17;9.25;;;5.22;;
22965;SDS011;11649;48.090;9.754;2024-03-23T07:09:43;8.13;;;5.28;;
22965;SDS011;11649;48.090;9.754;2024-03-23T07:12:09;10.13;;;6.20;;
22965;SDS011;11649;48.090;9.754;2024-03-23T07:14:34;9.60;;;5.60;;
22965;SDS011;11649;48.090;9.754;2024-03-23T07:17:00;12.82;;;6.18;;
22965;SDS011;11649;48.090;9.754;2024-03-23T07:19:26;9.05;;;5.78;;
22965;SDS011;11649;48.090;9.754;2024-03-23T07:21:52;13.85;;;6.35;;
22965;SDS011;11649;48.090;9.754;2024-03-23T07:24:18;10.13;;;6.95;;
22965;SDS011;11649;48.090;9.754;2024-03-23T07:26:44;7.75;;;5.35;;
22965;SDS011;11649;48.090;9.754;2024-03-23T07:29:10;10.68;;;6.20;;
22965;SDS011;11649;48.090;9.754;2024-03-23T07:31:36;10.60;;;6.20;;
22965;SDS011;11649;48.090;9.754;2024-03-23T07:34:02;8.52;;;6.07;;
22965;SDS011;11649;48.090;9.754;2024-03-23T07:36:27;8.73;;;6.30;;
22965;SDS011;11649;48.090;9.754;2024-03-23T07:38:53;10.25;;;5.45;;
22965;SDS011;11649;48.090;9.754;2024-03-23T07:41:19;8.55;;;5.13;;
22965;SDS011;11649;48.090;9.754;2024-03-23T07:43:46;9.55;;;5.70;;
22965;SDS011;11649;48.090;9.754;2024-03-23T07:46:17;7.50;;;5.50;;
22965;SDS011;11649;48.090;9.754;2024-03-23T07:48:44;9.00;;;5.55;;
22965;SDS011;11649;48.090;9.754;2024-03-23T07:51:10;7.65;;;5.75;;
22965;SDS011;11649;48.090;9.754;2024-03-23T07:53:42;7.30;;;5.60;;
22965;SDS011;11649;48.090;9.754;2024-03-23T07:56:09;8.40;;;5.78;;
22965;SDS011;11649;48.090;9.754;2024-03-23T07:58:35;9.88;;;5.75;;
22965;SDS011;11649;48.090;9.754;2024-03-23T08:01:06;7.70;;;5.85;;
22965;SDS011;11649;48.090;9.754;2024-03-23T08:03:43;8.13;;;5.72;;
22965;SDS011;11649;48.090;9.754;2024-03-23T08:06:14;9.27;;;6.20;;
22965;SDS011;11649;48.090;9.754;2024-03-23T08:08:40;8.05;;;6.25;;
22965;SDS011;11649;48.090;9.754;2024-03-23T08:11:07;6.25;;;4.63;;
22965;SDS011;11649;48.090;9.754;2024-03-23T08:13:33;5.57;;;4.00;;
22965;SDS011;11649;48.090;9.754;2024-03-23T08:16:01;4.68;;;3.63;;
22965;SDS011;11649;48.090;9.754;2024-03-23T08:18:28;4.13;;;2.88;;
22965;SDS011;11649;48.090;9.754;2024-03-23T08:20:58;1.50;;;1.40;;
22965;SDS011;11649;48.090;9.754;2024-03-23T08:23:31;3.05;;;1.20;;
22965;SDS011;11649;48.090;9.754;2024-03-23T08:26:11;2.72;;;1.35;;
22965;SDS011;11649;48.090;9.754;2024-03-23T08:28:38;3.25;;;1.20;;
22965;SDS011;11649;48.090;9.754;2024-03-23T08:31:05;1.75;;;1.02;;
22965;SDS011;11649;48.090;9.754;2024-03-23T08:33:32;0.70;;;0.70;;
22965;SDS011;11649;48.090;9.754;2024-03-23T08:36:02;0.80;;;0.65;;
22965;SDS011;11649;48.090;9.754;2024-03-23T08:38:29;0.80;;;0.70;;
22965;SDS011;11649;48.090;9.754;2024-03-23T08:40:58;0.60;;;0.60;;
22965;SDS011;11649;48.090;9.754;2024-03-23T08:43:26;1.08;;;0.68;;
22965;SDS011;11649;48.090;9.754;2024-03-23T08:45:52;0.52;;;0.52;;
22965;SDS011;11649;48.090;9.754;2024-03-23T08:48:21;0.65;;;0.50;;
22965;SDS011;11649;48.090;9.754;2024-03-23T08:50:47;0.80;;;0.60;;
22965;SDS011;11649;48.090;9.754;2024-03-23T08:53:29;2.28;;;0.50;;
22965;SDS011;11649;48.090;9.754;2024-03-23T08:55:56;0.82;;;0.55;;
22965;SDS011;11649;48.090;9.754;2024-03-23T08:58:27;0.40;;;0.40;;
22965;SDS011;11649;48.090;9.754;2024-03-23T09:00:54;1.38;;;0.50;;
22965;SDS011;11649;48.090;9.754;2024-03-23T09:03:24;0.40;;;0.38;;
22965;SDS011;11649;48.090;9.754;2024-03-23T09:05:51;0.77;;;0.40;;
22965;SDS011;11649;48.090;9.754;2024-03-23T09:08:18;0.50;;;0.40;;
22965;SDS011;11649;48.090;9.754;2024-03-23T09:10:44;1.85;;;0.40;;
22965;SDS011;11649;48.090;9.754;2024-03-23T09:13:10;1.55;;;0.60;;
22965;SDS011;11649;48.090;9.754;2024-03-23T09:15:37;0.47;;;0.47;;
22965;SDS011;11649;48.090;9.754;2024-03-23T09:18:11;1.10;;;0.70;;
22965;SDS011;11649;48.090;9.754;2024-03-23T09:20:36;1.08;;;0.70;;
22965;SDS011;11649;48.090;9.754;2024-03-23T09:23:02;1.17;;;0.70;;
22965;SDS011;11649;48.090;9.754;2024-03-23T09:25:28;1.25;;;0.80;;
22965;SDS011;11649;48.090;9.754;2024-03-23T09:27:54;1.85;;;1.20;;
22965;SDS011;11649;48.090;9.754;2024-03-23T09:30:19;1.48;;;0.90;;
22965;SDS011;11649;48.090;9.754;2024-03-23T09:32:45;1.50;;;0.93;;
22965;SDS011;11649;48.090;9.754;2024-03-23T09:35:11;2.30;;;1.05;;
22965;SDS011;11649;48.090;9.754;2024-03-23T09:37:40;4.10;;;1.20;;
22965;SDS011;11649;48.090;9.754;2024-03-23T09:40:09;2.10;;;1.15;;
22965;SDS011;11649;48.090;9.754;2024-03-23T09:42:36;2.65;;;1.30;;
22965;SDS011;11649;48.090;9.754;2024-03-23T09:45:05;4.15;;;1.17;;
22965;SDS011;11649;48.090;9.754;2024-03-23T09:47:32;1.23;;;0.93;;
22965;SDS011;11649;48.090;9.754;2024-03-23T09:49:59;1.63;;;1.10;;
22965;SDS011;11649;48.090;9.754;2024-03-23T09:52:26;2.22;;;1.20;;
22965;SDS011;11649;48.090;9.754;2024-03-23T09:54:51;2.55;;;1.30;;
22965;SDS011;11649;48.090;9.754;2024-03-23T09:57:17;2.33;;;1.38;;
22965;SDS011;11649;48.090;9.754;2024-03-23T10:00:01;5.53;;;1.42;;
22965;SDS011;11649;48.090;9.754;2024-03-23T10:02:28;2.25;;;1.52;;
22965;SDS011;11649;48.090;9.754;2024-03-23T10:04:54;3.03;;;1.70;;
22965;SDS011;11649;48.090;9.754;2024-03-23T10:07:20;3.30;;;1.65;;
22965;SDS011;11649;48.090;9.754;2024-03-23T10:09:47;2.08;;;1.30;;
22965;SDS011;11649;48.090;9.754;2024-03-23T10:12:21;2.77;;;1.70;;
22965;SDS011;11649;48.090;9.754;2024-03-23T10:14:53;3.97;;;1.60;;
22965;SDS011;11649;48.090;9.754;2024-03-23T10:17:19;2.72;;;1.50;;
22965;SDS011;11649;48.090;9.754;2024-03-23T10:19:50;51.92;;;6.80;;
22965;SDS011;11649;48.090;9.754;2024-03-23T10:22:20;2.08;;;1.33;;
22965;SDS011;11649;48.090;9.754;2024-03-23T10:25:06;3.50;;;1.60;;
22965;SDS011;11649;48.090;9.754;2024-03-23T10:27:33;4.10;;;1.80;;
22965;SDS011;11649;48.090;9.754;2024-03-23T10:30:07;7.80;;;2.25;;
22965;SDS011;11649;48.090;9.754;2024-03-23T10:32:37;4.40;;;1.88;;
22965;SDS011;11649;48.090;9.754;2024-03-23T10:35:20;3.72;;;1.90;;
22965;SDS011;11649;48.090;9.754;2024-03-23T10:37:59;3.85;;;1.67;;
22965;SDS011;11649;48.090;9.754;2024-03-23T10:40:25;3.55;;;2.10;;
22965;SDS011;11649;48.090;9.754;2024-03-23T10:42:52;3.92;;;1.77;;
22965;SDS011;11649;48.090;9.754;2024-03-23T10:45:22;3.85;;;1.92;;
22965;SDS011;11649;48.090;9.754;2024-03-23T10:47:49;3.85;;;1.80;;
22965;SDS011;11649;48.090;9.754;2024-03-23T10:50:15;8.82;;;1.90;;
22965;SDS011;11649;48.090;9.754;2024-03-23T10:52:41;3.13;;;1.60;;
22965;SDS011;11649;48.090;9.754;2024-03-23T10:55:15;8.80;;;1.95;;
22965;SDS011;11649;48.090;9.754;2024-03-23T11:00:18;4.75;;;2.10;;
22965;SDS011;11649;48.090;9.754;2024-03-23T11:02:56;4.28;;;2.20;;
22965;SDS011;11649;48.090;9.754;2024-03-23T11:05:28;6.68;;;2.92;;
22965;SDS011;11649;48.090;9.754;2024-03-23T11:07:55;3.83;;;2.05;;
22965;SDS011;11649;48.090;9.754;2024-03-23T11:10:25;4.00;;;1.83;;
22965;SDS011;11649;48.090;9.754;2024-03-23T11:12:53;5.25;;;1.90;;
22965;SDS011;11649;48.090;9.754;2024-03-23T11:15:19;5.32;;;3.50;;
22965;SDS011;11649;48.090;9.754;2024-03-23T11:20:34;6.88;;;2.15;;
22965;SDS011;11649;48.090;9.754;2024-03-23T11:23:01;4.07;;;2.17;;
22965;SDS011;11649;48.090;9.754;2024-03-23T11:25:27;5.00;;;2.30;;
22965;SDS011;11649;48.090;9.754;2024-03-23T11:27:54;4.55;;;2.22;;
22965;SDS011;11649;48.090;9.754;2024-03-23T11:30:21;5.78;;;2.45;;
22965;SDS011;11649;48.090;9.754;2024-03-23T11:32:49;5.28;;;2.70;;
22965;SDS011;11649;48.090;9.754;2024-03-23T11:35:26;4.00;;;2.30;;
22965;SDS011;11649;48.090;9.754;2024-03-23T11:38:13;4.00;;;1.88;;
22965;SDS011;11649;48.090;9.754;2024-03-23T11:40:41;4.05;;;2.15;;
22965;SDS011;11649;48.090;9.754;2024-03-23T11:43:15;7.38;;;2.72;;
22965;SDS011;11649;48.090;9.754;2024-03-23T11:45:43;3.88;;;2.10;;
22965;SDS011;11649;48.090;9.754;2024-03-23T11:48:14;4.65;;;2.03;;
22965;SDS011;11649;48.090;9.754;2024-03-23T11:50:43;4.45;;;1.77;;
22965;SDS011;11649;48.090;9.754;2024-03-23T11:53:15;4.93;;;1.92;;
22965;SDS011;11649;48.090;9.754;2024-03-23T11:55:49;6.05;;;2.20;;
22965;SDS011;11649;48.090;9.754;2024-03-23T11:58:23;5.73;;;1.93;;
22965;SDS011;11649;48.090;9.754;2024-03-23T12:00:55;5.00;;;1.80;;
22965;SDS011;11649;48.090;9.754;2024-03-23T12:03:23;4.63;;;1.88;;
22965;SDS011;11649;48.090;9.754;2024-03-23T12:06:03;2.78;;;1.58;;
22965;SDS011;11649;48.090;9.754;2024-03-23T12:08:31;5.75;;;1.67;;
22965;SDS011;11649;48.090;9.754;2024-03-23T12:11:08;5.05;;;1.73;;
22965;SDS011;11649;48.090;9.754;2024-03-23T12:13:37;7.18;;;1.60;;
22965;SDS011;11649;48.090;9.754;2024-03-23T12:16:13;3.80;;;1.90;;
22965;SDS011;11649;48.090;9.754;2024-03-23T12:18:46;3.28;;;1.30;;
22965;SDS011;11649;48.090;9.754;2024-03-23T12:21:13;4.07;;;1.50;;
22965;SDS011;11649;48.090;9.754;2024-03-23T12:23:39;6.20;;;1.73;;
22965;SDS011;11649;48.090;9.754;2024-03-23T12:26:05;4.72;;;1.80;;
22965;SDS011;11649;48.090;9.754;2024-03-23T12:28:31;5.13;;;1.90;;
22965;SDS011;11649;48.090;9.754;2024-03-23T12:30:58;6.25;;;1.90;;
22965;SDS011;11649;48.090;9.754;2024-03-23T12:33:24;4.68;;;1.70;;
22965;SDS011;11649;48.090;9.754;2024-03-23T12:35:52;2.67;;;1.40;;
22965;SDS011;11649;48.090;9.754;2024-03-23T12:38:23;3.55;;;1.48;;
22965;SDS011;11649;48.090;9.754;2024-03-23T12:40:49;3.42;;;1.80;;
22965;SDS011;11649;48.090;9.754;2024-03-23T12:45:48;5.20;;;1.50;;
22965;SDS011;11649;48.090;9.754;2024-03-23T12:48:14;2.53;;;1.25;;
22965;SDS011;11649;48.090;9.754;2024-03-23T12:50:40;2.42;;;1.10;;
22965;SDS011;11649;48.090;9.754;2024-03-23T12:53:06;3.03;;;1.40;;
22965;SDS011;11649;48.090;9.754;2024-03-23T12:55:46;1.67;;;1.00;;
22965;SDS011;11649;48.090;9.754;2024-03-23T12:58:22;3.08;;;1.10;;
22965;SDS011;11649;48.090;9.754;2024-03-23T13:00:48;2.58;;;1.25;;
22965;SDS011;11649;48.090;9.754;2024-03-23T13:03:14;1.52;;;0.85;;
22965;SDS011;11649;48.090;9.754;2024-03-23T13:05:40;1.77;;;0.93;;
22965;SDS011;11649;48.090;9.754;2024-03-23T13:08:06;1.27;;;0.88;;
22965;SDS011;11649;48.090;9.754;2024-03-23T13:10:32;2.20;;;0.80;;
22965;SDS011;11649;48.090;9.754;2024-03-23T13:12:58;1.23;;;0.88;;
22965;SDS011;11649;48.090;9.754;2024-03-23T13:15:24;0.63;;;0.50;;
22965;SDS011;11649;48.090;9.754;2024-03-23T13:17:50;13.95;;;2.08;;
22965;SDS011;11649;48.090;9.754;2024-03-23T13:20:17;1.77;;;0.80;;
22965;SDS011;11649;48.090;9.754;2024-03-23T13:22:43;2.72;;;0.68;;
22965;SDS011;11649;48.090;9.754;2024-03-23T13:25:09;2.60;;;0.75;;
22965;SDS011;11649;48.090;9.754;2024-03-23T13:27:36;1.60;;;0.85;;
22965;SDS011;11649;48.090;9.754;2024-03-23T13:30:02;5.63;;;2.22;;
22965;SDS011;11649;48.090;9.754;2024-03-23T13:32:29;2.38;;;1.17;;
22965;SDS011;11649;48.090;9.754;2024-03-23T13:34:55;1.98;;;1.30;;
22965;SDS011;11649;48.090;9.754;2024-03-23T13:37:21;3.05;;;1.30;;
22965;SDS011;11649;48.090;9.754;2024-03-23T13:39:46;1.83;;;1.25;;
22965;SDS011;11649;48.090;9.754;2024-03-23T13:42:12;11.88;;;2.55;;
22965;SDS011;11649;48.090;9.754;2024-03-23T13:44:43;3.42;;;1.58;;
22965;SDS011;11649;48.090;9.754;2024-03-23T13:47:09;3.40;;;1.45;;
22965;SDS011;11649;48.090;9.754;2024-03-23T13:49:37;4.32;;;1.40;;
22965;SDS011;11649;48.090;9.754;2024-03-23T13:52:03;5.35;;;1.58;;
22965;SDS011;11649;48.090;9.754;2024-03-23T13:54:29;2.60;;;1.48;;
22965;SDS011;11649;48.090;9.754;2024-03-23T13:56:55;2.97;;;1.65;;
22965;SDS011;11649;48.090;9.754;2024-03-23T13:59:21;6.22;;;1.70;;
22965;SDS011;11649;48.090;9.754;2024-03-23T14:01:51;4.47;;;1.70;;
22965;SDS011;11649;48.090;9.754;2024-03-23T14:04:29;3.85;;;1.50;;
22965;SDS011;11649;48.090;9.754;2024-03-23T14:06:55;2.78;;;1.35;;
22965;SDS011;11649;48.090;9.754;2024-03-23T14:09:23;2.58;;;1.30;;
22965;SDS011;11649;48.090;9.754;2024-03-23T14:11:56;4.30;;;1.25;;
22965;SDS011;11649;48.090;9.754;2024-03-23T14:14:22;2.63;;;1.02;;
22965;SDS011;11649;48.090;9.754;2024-03-23T14:16:48;5.75;;;1.10;;
22965;SDS011;11649;48.090;9.754;2024-03-23T14:19:14;4.70;;;1.30;;
22965;SDS011;11649;48.090;9.754;2024-03-23T14:21:39;3.72;;;0.98;;
22965;SDS011;11649;48.090;9.754;2024-03-23T14:24:08;2.50;;;1.00;;
22965;SDS011;11649;48.090;9.754;2024-03-23T14:26:36;8.13;;;1.42;;
22965;SDS011;11649;48.090;9.754;2024-03-23T14:29:07;3.80;;;1.33;;
22965;SDS011;11649;48.090;9.754;2024-03-23T14:31:34;2.90;;;1.10;;
22965;SDS011;11649;48.090;9.754;2024-03-23T14:34:00;5.10;;;1.58;;
22965;SDS011;11649;48.090;9.754;2024-03-23T14:36:29;5.60;;;1.20;;
22965;SDS011;11649;48.090;9.754;2024-03-23T14:38:57;2.40;;;1.10;;
22965;SDS011;11649;48.090;9.754;2024-03-23T14:41:22;6.03;;;1.10;;
22965;SDS011;11649;48.090;9.754;2024-03-23T14:43:48;7.55;;;1.17;;
22965;SDS011;11649;48.090;9.754;2024-03-23T14:46:20;3.00;;;0.98;;
22965;SDS011;11649;48.090;9.754;2024-03-23T14:48:56;3.75;;;1.25;;
22965;SDS011;11649;48.090;9.754;2024-03-23T14:53:54;2.55;;;1.13;;
22965;SDS011;11649;48.090;9.754;2024-03-23T14:56:20;2.95;;;1.08;;
22965;SDS011;11649;48.090;9.754;2024-03-23T14:58:52;4.28;;;1.10;;
22965;SDS011;11649;48.090;9.754;2024-03-23T15:01:18;1.77;;;1.00;;
22965;SDS011;11649;48.090;9.754;2024-03-23T15:03:44;5.05;;;1.08;;
22965;SDS011;11649;48.090;9.754;2024-03-23T15:19:47;3.08;;;1.00;;
22965;SDS011;11649;48.090;9.754;2024-03-23T15:22:58;3.05;;;1.00;;
22965;SDS011;11649;48.090;9.754;2024-03-23T15:26:20;2.08;;;1.08;;
22965;SDS011;11649;48.090;9.754;2024-03-23T15:33:11;2.05;;;1.20;;
22965;SDS011;11649;48.090;9.754;2024-03-23T15:35:56;2.13;;;0.90;;
22965;SDS011;11649;48.090;9.754;2024-03-23T15:38:37;1.65;;;0.65;;
22965;SDS011;11649;48.090;9.754;2024-03-23T15:41:16;1.65;;;0.98;;
22965;SDS011;11649;48.090;9.754;2024-03-23T15:43:48;1.27;;;0.80;;
22965;SDS011;11649;48.090;9.754;2024-03-23T15:46:43;2.45;;;0.80;;
22965;SDS011;11649;48.090;9.754;2024-03-23T16:12:17;4.63;;;1.10;;
22965;SDS011;11649;48.090;9.754;2024-03-23T16:14:55;4.05;;;1.27;;
22965;SDS011;11649;48.090;9.754;2024-03-23T16:18:04;5.07;;;1.00;;
22965;SDS011;11649;48.090;9.754;2024-03-23T16:27:37;7.07;;;4.43;;
22965;SDS011;11649;48.090;9.754;2024-03-23T16:34:10;4.68;;;2.00;;
22965;SDS011;11649;48.090;9.754;2024-03-23T16:36:59;3.85;;;1.00;;
22965;SDS011;11649;48.090;9.754;2024-03-23T16:39:30;2.90;;;0.77;;
22965;SDS011;11649;48.090;9.754;2024-03-23T16:41:56;3.17;;;0.90;;
22965;SDS011;11649;48.090;9.754;2024-03-23T16:47:47;3.40;;;0.88;;
22965;SDS011;11649;48.090;9.754;2024-03-23T16:55:24;3.20;;;1.00;;
22965;SDS011;11649;48.090;9.754;2024-03-23T16:58:04;4.20;;;0.90;;
22965;SDS011;11649;48.090;9.754;2024-03-23T17:04:35;2.88;;;0.63;;
22965;SDS011;11649;48.090;9.754;2024-03-23T17:10:56;2.20;;;0.70;;
22965;SDS011;11649;48.090;9.754;2024-03-23T17:13:30;6.45;;;0.93;;